Time;durP1;ratioP1;P1;durP2;ratioP2;P2;SDS_P1;SDS_P2;PMS_P1;PMS_P2;Temp;Humidity;BMP_temperature;BMP_pressure;BME280_temperature;BME280_humidity;BME280_pressure;Samples;Min_cycle;Max_cycle;Signal;HPM_P1;HPM_P2
2023/07/27 00:00:28;;;;;;;4.93;2.10;;;17.90;80.70;;;;;;5035214;28;20026;-76
2023/07/27 00:02:53;;;;;;;4.47;1.88;;;17.90;80.90;;;;;;5035276;28;20082;-76
2023/07/27 00:05:19;;;;;;;5.00;2.08;;;17.90;80.90;;;;;;5019171;28;20013;-76
2023/07/27 00:07:44;;;;;;;4.75;2.03;;;17.90;80.90;;;;;;5035331;28;20028;-76
2023/07/27 00:10:10;;;;;;;5.45;2.03;;;17.90;80.90;;;;;;5051863;28;20025;-76
2023/07/27 00:12:36;;;;;;;5.22;2.03;;;17.90;81.10;;;;;;5051999;28;20056;-76
2023/07/27 00:15:02;;;;;;;4.93;2.22;;;17.90;81.10;;;;;;5051870;28;20571;-76
2023/07/27 00:17:28;;;;;;;5.90;2.20;;;17.90;81.20;;;;;;5051881;28;20168;-76
2023/07/27 00:19:54;;;;;;;5.25;2.08;;;17.80;81.30;;;;;;5051956;28;20107;-76
2023/07/27 00:22:21;;;;;;;4.95;1.83;;;17.80;81.40;;;;;;5051665;28;20476;-76
2023/07/27 00:24:46;;;;;;;3.92;1.67;;;17.80;81.60;;;;;;5052790;28;20122;-76
2023/07/27 00:27:12;;;;;;;4.22;1.65;;;17.80;81.90;;;;;;5035202;28;20482;-76
2023/07/27 00:29:37;;;;;;;4.43;1.90;;;17.80;82.00;;;;;;5053346;28;20044;-76
2023/07/27 00:32:03;;;;;;;4.68;2.15;;;17.80;82.00;;;;;;5035163;28;20086;-86
2023/07/27 00:34:29;;;;;;;4.85;2.08;;;17.80;81.80;;;;;;5034972;28;20056;-85
2023/07/27 00:36:54;;;;;;;4.30;1.48;;;17.80;81.80;;;;;;5051658;28;20497;-86
2023/07/27 00:39:21;;;;;;;4.35;1.85;;;17.80;81.90;;;;;;5052910;28;20021;-86
2023/07/27 00:41:46;;;;;;;3.88;1.98;;;17.80;81.90;;;;;;5052934;28;20366;-86
2023/07/27 00:44:12;;;;;;;4.80;2.10;;;17.80;82.00;;;;;;5051545;28;20041;-86
2023/07/27 00:46:38;;;;;;;4.15;1.83;;;17.80;81.90;;;;;;5055190;28;20029;-87
2023/07/27 00:49:04;;;;;;;6.18;3.00;;;17.80;81.30;;;;;;5056195;28;20052;-85
2023/07/27 00:51:40;;;;;;;6.30;2.97;;;17.80;80.70;;;;;;5056547;28;20432;-83
2023/07/27 00:54:08;;;;;;;7.85;2.63;;;17.70;80.40;;;;;;5055964;28;20079;-83
2023/07/27 00:56:37;;;;;;;6.03;2.90;;;17.70;80.30;;;;;;5056587;28;20575;-81
2023/07/27 00:59:04;;;;;;;7.72;3.50;;;17.70;80.30;;;;;;5054925;28;20153;-85
2023/07/27 01:01:29;;;;;;;7.22;3.45;;;17.70;80.70;;;;;;5038176;28;20102;-84
2023/07/27 01:03:56;;;;;;;6.35;3.42;;;17.60;80.80;;;;;;5056054;28;20025;-85
2023/07/27 01:06:22;;;;;;;6.93;2.90;;;17.50;81.10;;;;;;5054648;28;20025;-85
2023/07/27 01:08:48;;;;;;;7.07;3.53;;;17.50;81.50;;;;;;5037882;28;20051;-84
2023/07/27 01:11:36;;;;;;;8.07;3.78;;;17.40;81.70;;;;;;5055778;28;20117;-84
2023/07/27 01:14:08;;;;;;;6.57;2.55;;;17.40;82.00;;;;;;5055637;28;20473;-86
2023/07/27 01:16:49;;;;;;;7.45;2.75;;;17.30;82.30;;;;;;5055776;28;20025;-86
2023/07/27 01:19:40;;;;;;;6.07;2.65;;;17.30;82.70;;;;;;5054623;28;20021;-86
2023/07/27 01:22:21;;;;;;;6.63;2.70;;;17.30;83.00;;;;;;5055780;28;20017;-87
2023/07/27 01:24:57;;;;;;;4.95;2.42;;;17.20;83.20;;;;;;5055573;28;20383;-86
2023/07/27 01:27:41;;;;;;;7.72;2.95;;;17.20;83.50;;;;;;5055922;28;20025;-86
2023/07/27 01:30:15;;;;;;;5.63;3.25;;;17.10;83.90;;;;;;5054455;28;20503;-86
2023/07/27 01:32:42;;;;;;;6.93;2.40;;;17.10;84.10;;;;;;5054192;28;20045;-86
2023/07/27 01:35:12;;;;;;;4.72;2.35;;;17.10;84.40;;;;;;5055327;28;20032;-87
2023/07/27 01:37:41;;;;;;;6.13;2.78;;;17.00;84.60;;;;;;5054136;28;20025;-86
2023/07/27 01:40:09;;;;;;;6.72;3.08;;;17.00;85.00;;;;;;5054075;28;20885;-87
2023/07/27 01:42:36;;;;;;;7.40;3.10;;;17.00;85.40;;;;;;5054045;28;20064;-86
2023/07/27 01:45:02;;;;;;;5.63;2.70;;;16.90;85.70;;;;;;5053937;28;20032;-85
2023/07/27 01:47:29;;;;;;;6.55;3.00;;;16.90;86.00;;;;;;5054121;28;20087;-84
2023/07/27 01:49:55;;;;;;;7.63;3.08;;;16.90;86.40;;;;;;5055049;28;20370;-86
2023/07/27 01:52:23;;;;;;;7.70;3.78;;;16.80;86.50;;;;;;5053785;28;20028;-84
2023/07/27 01:54:49;;;;;;;6.47;3.05;;;16.80;87.00;;;;;;5054081;28;20056;-85
2023/07/27 01:57:16;;;;;;;6.32;2.88;;;16.80;87.20;;;;;;5053285;28;20036;-85
2023/07/27 01:59:42;;;;;;;6.97;3.30;;;16.70;87.40;;;;;;5055002;28;20366;-85
2023/07/27 02:02:08;;;;;;;6.03;2.80;;;16.80;87.90;;;;;;5054964;28;20223;-85
2023/07/27 02:04:34;;;;;;;6.75;3.22;;;16.80;88.10;;;;;;5053598;28;20143;-85
2023/07/27 02:07:00;;;;;;;5.78;3.25;;;16.70;88.40;;;;;;5054821;28;20037;-84
2023/07/27 02:09:26;;;;;;;6.63;3.55;;;16.70;88.70;;;;;;5036983;28;20114;-84
2023/07/27 02:11:56;;;;;;;6.72;3.08;;;16.80;89.80;;;;;;5054943;28;20048;-84
2023/07/27 02:14:29;;;;;;;6.15;2.85;;;16.70;89.40;;;;;;5053956;28;20021;-84
2023/07/27 02:17:01;;;;;;;6.22;2.58;;;16.70;89.60;;;;;;5054532;28;20025;-84
2023/07/27 02:19:31;;;;;;;6.68;3.30;;;16.70;89.80;;;;;;5054684;28;20111;-83
2023/07/27 02:21:58;;;;;;;5.70;2.75;;;16.70;90.00;;;;;;5054633;28;20435;-83
2023/07/27 02:24:27;;;;;;;6.38;2.80;;;16.70;90.10;;;;;;5052961;28;20384;-84
2023/07/27 02:26:52;;;;;;;6.65;2.83;;;16.60;90.20;;;;;;5053186;28;20511;-84
2023/07/27 02:29:18;;;;;;;5.78;2.97;;;16.70;90.30;;;;;;5053288;28;20033;-83
2023/07/27 02:31:43;;;;;;;6.30;3.42;;;16.70;90.60;;;;;;5036456;28;20151;-83
2023/07/27 02:34:10;;;;;;;7.75;3.65;;;16.70;90.60;;;;;;5052995;28;20029;-83
2023/07/27 02:36:35;;;;;;;7.15;3.63;;;16.60;91.00;;;;;;5053160;28;20040;-83
2023/07/27 02:39:01;;;;;;;7.88;3.88;;;16.60;90.90;;;;;;5052958;28;20033;-83
2023/07/27 02:41:27;;;;;;;8.15;4.03;;;16.60;91.00;;;;;;5036491;28;20048;-83
2023/07/27 02:43:52;;;;;;;9.77;4.10;;;16.60;91.10;;;;;;5052849;28;20386;-82
2023/07/27 02:46:18;;;;;;;8.50;4.55;;;16.60;91.30;;;;;;5054585;28;20033;-82
2023/07/27 02:48:43;;;;;;;9.85;5.10;;;16.60;91.50;;;;;;5036257;28;20040;-82
2023/07/27 02:51:09;;;;;;;8.25;4.90;;;16.60;91.60;;;;;;5036106;28;20110;-82
2023/07/27 02:53:34;;;;;;;9.35;5.13;;;16.50;91.60;;;;;;5053915;28;20045;-82
2023/07/27 02:56:02;;;;;;;9.73;5.22;;;16.50;92.00;;;;;;5053906;28;20025;-81
2023/07/27 02:58:28;;;;;;;10.30;5.05;;;16.50;92.10;;;;;;5054001;28;20053;-81
2023/07/27 03:00:55;;;;;;;8.82;5.55;;;16.40;92.30;;;;;;5053847;28;20107;-81
2023/07/27 03:03:21;;;;;;;11.68;6.03;;;16.40;92.40;;;;;;5052620;28;20056;-81
2023/07/27 03:05:47;;;;;;;9.52;5.40;;;16.30;92.40;;;;;;5053892;28;20913;-81
2023/07/27 03:08:12;;;;;;;9.43;5.82;;;16.30;92.60;;;;;;5052662;28;20401;-81
2023/07/27 03:10:39;;;;;;;11.13;5.78;;;16.30;92.80;;;;;;5035952;28;20032;-82
2023/07/27 03:13:04;;;;;;;10.52;5.63;;;16.30;93.00;;;;;;5053944;28;20431;-81
2023/07/27 03:15:30;;;;;;;8.88;5.18;;;16.30;93.00;;;;;;5035940;28;20090;-83
2023/07/27 03:17:55;;;;;;;10.30;5.40;;;16.30;93.20;;;;;;5052248;28;20052;-83
2023/07/27 03:20:21;;;;;;;11.35;6.22;;;16.20;93.40;;;;;;5053551;28;20481;-83
2023/07/27 03:22:47;;;;;;;10.27;6.07;;;16.20;93.80;;;;;;5053490;28;20159;-82
2023/07/27 03:25:12;;;;;;;11.05;6.47;;;16.20;93.80;;;;;;5053511;28;20053;-84
2023/07/27 03:27:39;;;;;;;12.90;6.40;;;16.20;93.90;;;;;;5052390;28;20496;-83
2023/07/27 03:30:05;;;;;;;10.48;6.18;;;16.20;94.20;;;;;;5053570;28;20033;-82
2023/07/27 03:32:31;;;;;;;10.77;6.90;;;16.20;94.40;;;;;;5052258;28;20036;-82
2023/07/27 03:34:56;;;;;;;13.45;7.10;;;16.20;94.80;;;;;;5035609;28;20021;-83
2023/07/27 03:37:22;;;;;;;10.80;6.88;;;16.10;94.80;;;;;;5035618;28;20022;-82
2023/07/27 03:39:47;;;;;;;12.73;7.15;;;16.20;95.10;;;;;;5052320;28;20024;-83
2023/07/27 03:42:13;;;;;;;11.57;7.10;;;16.10;95.30;;;;;;5052576;28;20037;-83
2023/07/27 03:44:39;;;;;;;15.30;6.60;;;16.10;95.40;;;;;;5052343;28;20028;-83
2023/07/27 03:47:04;;;;;;;12.73;7.78;;;16.10;95.60;;;;;;5052544;28;20036;-83
2023/07/27 03:49:30;;;;;;;12.25;7.97;;;16.10;95.80;;;;;;5052820;28;20504;-83
2023/07/27 03:51:56;;;;;;;15.70;8.80;;;16.10;96.30;;;;;;5053961;28;20037;-83
2023/07/27 03:54:21;;;;;;;14.85;9.23;;;16.10;96.50;;;;;;5054209;28;20056;-82
2023/07/27 03:56:47;;;;;;;15.20;8.60;;;16.00;96.60;;;;;;5052623;28;20032;-80
2023/07/27 03:59:12;;;;;;;15.07;8.88;;;16.10;96.90;;;;;;5053961;28;20080;-82
2023/07/27 04:01:38;;;;;;;16.05;8.52;;;16.00;97.20;;;;;;5054001;28;20057;-83
2023/07/27 04:04:04;;;;;;;13.82;8.88;;;16.00;97.40;;;;;;5052748;28;20029;-82
2023/07/27 04:06:29;;;;;;;15.15;9.18;;;16.00;97.70;;;;;;5035593;28;20039;-84
2023/07/27 04:08:55;;;;;;;16.67;9.50;;;16.00;97.70;;;;;;5052670;28;20036;-83
2023/07/27 04:11:21;;;;;;;15.02;9.27;;;16.00;98.20;;;;;;5051844;28;20029;-83
2023/07/27 04:13:46;;;;;;;13.98;9.10;;;16.00;98.00;;;;;;5052343;28;20025;-84
2023/07/27 04:16:12;;;;;;;13.32;8.70;;;15.90;98.30;;;;;;5051693;28;20032;-84
2023/07/27 04:18:37;;;;;;;13.23;8.30;;;15.90;98.60;;;;;;5051805;28;20528;-83
2023/07/27 04:21:03;;;;;;;14.00;7.38;;;15.90;98.70;;;;;;5055797;28;20017;-83
2023/07/27 04:23:29;;;;;;;14.40;6.82;;;15.90;99.10;;;;;;5056682;28;20025;-83
2023/07/27 04:25:54;;;;;;;10.40;5.20;;;15.90;99.20;;;;;;5055337;28;20049;-84
2023/07/27 04:28:21;;;;;;;12.07;5.78;;;15.90;99.30;;;;;;5022395;28;20484;-85
2023/07/27 04:30:46;;;;;;;11.82;5.30;;;15.80;99.60;;;;;;5056586;28;20496;-83
2023/07/27 04:33:12;;;;;;;9.48;4.95;;;15.80;99.60;;;;;;5022240;28;20037;-83
2023/07/27 04:35:37;;;;;;;9.93;5.93;;;15.80;99.50;;;;;;5038784;28;20123;-82
2023/07/27 04:38:03;;;;;;;9.63;5.50;;;15.80;99.70;;;;;;5055341;28;20025;-83
2023/07/27 04:40:29;;;;;;;10.63;5.15;;;15.80;99.90;;;;;;5055484;28;20025;-83
2023/07/27 04:42:54;;;;;;;8.38;4.95;;;15.80;99.80;;;;;;5055083;28;20028;-84
2023/07/27 04:45:20;;;;;;;7.32;4.65;;;15.80;99.80;;;;;;5056440;28;20029;-83
2023/07/27 04:47:45;;;;;;;9.18;5.22;;;15.80;99.90;;;;;;5056435;28;20029;-82
2023/07/27 04:50:11;;;;;;;8.70;4.65;;;15.80;99.90;;;;;;5056251;28;20481;-82
2023/07/27 04:52:37;;;;;;;8.65;4.20;;;15.80;99.90;;;;;;5054965;28;20021;-84
2023/07/27 04:55:03;;;;;;;8.75;4.20;;;15.80;99.90;;;;;;5054980;28;20108;-83
2023/07/27 04:57:29;;;;;;;7.82;4.05;;;15.80;99.90;;;;;;5056449;28;20033;-82
2023/07/27 04:59:54;;;;;;;8.85;4.18;;;15.80;99.90;;;;;;5054905;28;20108;-83
2023/07/27 05:02:20;;;;;;;8.90;4.25;;;15.80;99.90;;;;;;5056110;28;20025;-82
2023/07/27 05:04:45;;;;;;;6.30;3.75;;;15.80;99.90;;;;;;5056221;28;20029;-82
2023/07/27 05:07:11;;;;;;;6.10;3.63;;;15.80;99.90;;;;;;5056227;28;20067;-85
2023/07/27 05:09:37;;;;;;;7.22;4.07;;;15.80;99.90;;;;;;5021499;28;20070;-82
2023/07/27 05:12:02;;;;;;;8.50;3.50;;;15.80;99.90;;;;;;5021667;28;20034;-84
2023/07/27 05:14:28;;;;;;;8.02;3.95;;;15.80;99.90;;;;;;5054441;28;20033;-84
2023/07/27 05:16:54;;;;;;;7.45;3.60;;;15.80;99.90;;;;;;5055644;28;20029;-84
2023/07/27 05:19:19;;;;;;;6.78;2.90;;;15.80;99.90;;;;;;5055569;28;20071;-84
2023/07/27 05:21:45;;;;;;;5.60;3.10;;;15.80;99.90;;;;;;5054617;28;20438;-84
2023/07/27 05:24:10;;;;;;;5.47;2.90;;;15.80;99.90;;;;;;5054612;28;20029;-84
2023/07/27 05:26:36;;;;;;;5.15;2.85;;;15.80;99.90;;;;;;5054181;28;20076;-83
2023/07/27 05:29:01;;;;;;;5.70;2.95;;;15.80;99.90;;;;;;5055654;28;20037;-83
2023/07/27 05:31:27;;;;;;;4.57;2.58;;;15.80;99.90;;;;;;5036393;28;20424;-84
2023/07/27 05:33:53;;;;;;;5.90;3.13;;;15.90;99.90;;;;;;5055429;28;20481;-84
2023/07/27 05:36:18;;;;;;;7.47;2.97;;;15.90;99.90;;;;;;5054168;28;20033;-85
2023/07/27 05:38:44;;;;;;;5.15;2.85;;;15.90;99.90;;;;;;5053987;28;20029;-83
2023/07/27 05:41:09;;;;;;;4.45;2.38;;;15.90;99.90;;;;;;5055160;28;20083;-83
2023/07/27 05:43:35;;;;;;;6.15;2.35;;;15.90;99.90;;;;;;5053882;28;20040;-84
2023/07/27 05:46:01;;;;;;;4.88;2.33;;;15.90;99.90;;;;;;5054044;28;20036;-83
2023/07/27 05:48:27;;;;;;;4.13;2.05;;;15.90;99.90;;;;;;5055262;28;20088;-85
2023/07/27 05:50:53;;;;;;;4.47;2.05;;;15.90;99.90;;;;;;5054054;28;20033;-84
2023/07/27 05:53:19;;;;;;;5.72;2.03;;;15.90;99.90;;;;;;5054074;28;20036;-86
2023/07/27 05:55:44;;;;;;;6.05;2.25;;;15.90;99.90;;;;;;5054055;28;20029;-83
2023/07/27 05:58:10;;;;;;;5.63;2.97;;;15.80;99.90;;;;;;5054294;28;20033;-84
2023/07/27 06:00:36;;;;;;;3.85;1.85;;;15.80;99.90;;;;;;5037150;28;20021;-84
2023/07/27 06:03:01;;;;;;;4.28;2.00;;;15.80;99.90;;;;;;5053813;28;20543;-84
2023/07/27 06:05:27;;;;;;;4.68;2.15;;;15.80;99.90;;;;;;5054893;28;20087;-84
2023/07/27 06:07:52;;;;;;;3.70;2.03;;;15.70;99.90;;;;;;5037101;28;20036;-84
2023/07/27 06:10:18;;;;;;;3.95;1.75;;;15.80;99.90;;;;;;5054671;28;20064;-83
2023/07/27 06:12:44;;;;;;;4.15;1.77;;;15.80;99.90;;;;;;5054458;28;20025;-83
2023/07/27 06:15:10;;;;;;;4.72;2.20;;;15.80;99.90;;;;;;5048091;28;20048;-83
2023/07/27 06:17:36;;;;;;;4.50;1.85;;;15.80;99.90;;;;;;5054715;28;20029;-83
2023/07/27 06:20:02;;;;;;;4.30;1.80;;;15.80;99.90;;;;;;5053919;28;20083;-84
2023/07/27 06:22:28;;;;;;;4.53;1.60;;;15.80;99.90;;;;;;5053280;28;20052;-83
2023/07/27 06:24:53;;;;;;;3.17;1.48;;;15.80;99.90;;;;;;5048665;28;20478;-83
2023/07/27 06:27:19;;;;;;;3.03;1.42;;;15.90;99.90;;;;;;5036107;28;20036;-84
2023/07/27 06:29:45;;;;;;;3.38;1.67;;;15.90;99.90;;;;;;5033287;28;20513;-84
2023/07/27 06:32:10;;;;;;;3.28;1.50;;;15.90;99.90;;;;;;5033324;28;20037;-83
2023/07/27 06:34:36;;;;;;;2.35;1.10;;;16.00;99.90;;;;;;5033115;28;20056;-84
2023/07/27 06:37:01;;;;;;;2.05;1.10;;;16.00;99.90;;;;;;5034531;28;20489;-82
2023/07/27 06:39:28;;;;;;;2.72;1.20;;;16.00;99.90;;;;;;5000372;28;20026;-83
2023/07/27 06:41:54;;;;;;;2.35;1.20;;;16.10;99.90;;;;;;5033162;28;20072;-84
2023/07/27 06:44:19;;;;;;;3.60;1.02;;;16.10;99.90;;;;;;5034129;28;20440;-82
2023/07/27 06:46:45;;;;;;;3.20;1.23;;;16.10;99.90;;;;;;5017322;28;20393;-83
2023/07/27 06:49:11;;;;;;;2.08;1.08;;;16.10;99.90;;;;;;5034381;28;20481;-84
2023/07/27 06:51:37;;;;;;;3.03;1.27;;;16.10;99.90;;;;;;5032961;28;20033;-76
2023/07/27 06:54:02;;;;;;;3.63;1.20;;;16.20;99.90;;;;;;5016334;28;20037;-76
2023/07/27 06:56:28;;;;;;;3.00;1.08;;;16.20;99.90;;;;;;5032985;28;20032;-77
2023/07/27 06:58:54;;;;;;;2.90;1.38;;;16.30;99.90;;;;;;5032756;28;20071;-77
2023/07/27 07:01:19;;;;;;;3.03;1.10;;;16.30;99.90;;;;;;5000137;28;20052;-76
2023/07/27 07:03:45;;;;;;;1.85;1.00;;;16.30;99.90;;;;;;5032551;28;20064;-75
2023/07/27 07:06:11;;;;;;;2.83;1.10;;;16.30;99.90;;;;;;5024122;28;20040;-77
2023/07/27 07:08:36;;;;;;;2.78;1.25;;;16.40;99.90;;;;;;5040378;28;20502;-76
2023/07/27 07:11:02;;;;;;;2.40;0.90;;;16.40;99.90;;;;;;5032477;28;20087;-77
2023/07/27 07:13:29;;;;;;;1.92;0.80;;;16.40;99.90;;;;;;5024334;28;20111;-76
2023/07/27 07:15:54;;;;;;;2.40;1.00;;;16.40;99.90;;;;;;5052264;28;20025;-76
2023/07/27 07:18:20;;;;;;;1.65;0.75;;;16.50;99.90;;;;;;5049152;28;20044;-76
2023/07/27 07:20:46;;;;;;;2.60;0.82;;;16.40;99.90;;;;;;5052190;28;20358;-76
2023/07/27 07:23:12;;;;;;;3.75;0.90;;;16.50;99.90;;;;;;5052473;28;20036;-76
2023/07/27 07:25:40;;;;;;;1.92;1.02;;;16.50;99.90;;;;;;5035622;28;20045;-77
2023/07/27 07:28:05;;;;;;;1.33;0.65;;;16.60;99.90;;;;;;5052372;28;20078;-76
2023/07/27 07:30:31;;;;;;;2.83;1.00;;;16.70;99.90;;;;;;5052224;28;20021;-76
2023/07/27 07:32:56;;;;;;;3.20;0.93;;;16.60;99.90;;;;;;5035446;28;20481;-77
2023/07/27 07:35:22;;;;;;;1.98;0.90;;;16.70;99.90;;;;;;5052258;28;20065;-77
2023/07/27 07:37:49;;;;;;;2.25;0.88;;;16.80;99.90;;;;;;5035543;28;20037;-77
2023/07/27 07:40:16;;;;;;;1.30;0.70;;;16.80;99.90;;;;;;5052265;28;20116;-77
2023/07/27 07:42:42;;;;;;;2.03;1.00;;;16.90;99.90;;;;;;5052106;28;20033;-76
2023/07/27 07:45:08;;;;;;;1.77;0.90;;;16.90;99.90;;;;;;5036502;28;20040;-78
2023/07/27 07:47:34;;;;;;;2.60;1.23;;;17.00;99.90;;;;;;5049564;28;20584;-78
2023/07/27 07:50:00;;;;;;;1.90;0.90;;;17.10;99.90;;;;;;5018892;28;20065;-78
2023/07/27 07:52:25;;;;;;;2.20;0.70;;;17.10;99.90;;;;;;5052967;28;20036;-78
2023/07/27 07:54:51;;;;;;;1.45;0.63;;;17.20;99.90;;;;;;5054922;28;20041;-76
2023/07/27 07:57:19;;;;;;;1.42;0.70;;;17.20;99.90;;;;;;5057179;28;20029;-77
2023/07/27 07:59:45;;;;;;;1.60;0.90;;;17.30;99.90;;;;;;5056115;28;20025;-77
2023/07/27 08:02:11;;;;;;;1.48;0.70;;;17.30;99.90;;;;;;5022756;28;20045;-77
2023/07/27 08:04:37;;;;;;;1.60;0.80;;;17.30;99.90;;;;;;5056175;28;20530;-78
2023/07/27 08:07:03;;;;;;;1.23;0.68;;;17.40;99.90;;;;;;5055762;28;20072;-77
2023/07/27 08:09:29;;;;;;;1.88;0.80;;;17.50;99.90;;;;;;5057127;28;20477;-89
2023/07/27 08:11:55;;;;;;;1.30;0.57;;;17.50;99.90;;;;;;5055932;28;20033;-86
2023/07/27 08:14:21;;;;;;;1.70;0.70;;;17.60;99.90;;;;;;5038884;28;20028;-85
2023/07/27 08:16:47;;;;;;;1.20;0.60;;;17.60;99.90;;;;;;5057166;28;20017;-87
2023/07/27 08:19:12;;;;;;;1.27;0.60;;;17.70;99.90;;;;;;5055610;28;20036;-84
2023/07/27 08:21:38;;;;;;;2.40;0.77;;;17.70;99.90;;;;;;5056091;28;20083;-87
2023/07/27 08:24:05;;;;;;;1.58;0.70;;;17.80;99.90;;;;;;5039041;28;20029;-85
2023/07/27 08:26:31;;;;;;;3.53;0.90;;;17.80;99.90;;;;;;5039231;28;20045;-86
2023/07/27 08:28:57;;;;;;;1.42;0.70;;;17.80;99.90;;;;;;5022401;28;20039;-84
2023/07/27 08:31:22;;;;;;;1.30;0.60;;;17.80;99.90;;;;;;5038769;28;20523;-86
2023/07/27 08:33:48;;;;;;;3.15;0.93;;;17.90;99.90;;;;;;5055278;28;20087;-83
2023/07/27 08:36:14;;;;;;;1.38;0.70;;;17.90;99.90;;;;;;5055653;28;20033;-83
2023/07/27 08:38:40;;;;;;;1.20;0.60;;;17.90;99.90;;;;;;5056673;28;20053;-86
2023/07/27 08:41:05;;;;;;;1.25;0.70;;;17.90;99.90;;;;;;5022315;28;20029;-89
2023/07/27 08:43:31;;;;;;;2.45;0.80;;;18.00;99.90;;;;;;5055355;28;20504;-84
2023/07/27 08:45:58;;;;;;;2.03;0.95;;;18.00;99.90;;;;;;5055162;28;20469;-77
2023/07/27 08:48:24;;;;;;;2.58;0.65;;;18.00;99.90;;;;;;5055185;28;20021;-78
2023/07/27 08:50:51;;;;;;;1.90;0.80;;;18.00;99.90;;;;;;5023153;28;20104;-77
2023/07/27 08:53:18;;;;;;;1.33;0.77;;;18.10;99.90;;;;;;5040093;28;20026;-77
2023/07/27 08:55:44;;;;;;;2.03;0.80;;;18.10;99.90;;;;;;5044497;28;20474;-78
2023/07/27 08:58:11;;;;;;;1.80;0.75;;;18.20;99.90;;;;;;5034808;28;20068;-78
2023/07/27 09:00:40;;;;;;;2.35;1.08;;;18.30;99.90;;;;;;5034988;28;20022;-79
2023/07/27 09:03:09;;;;;;;1.98;0.80;;;18.40;99.90;;;;;;5035964;28;20071;-77
2023/07/27 09:05:40;;;;;;;2.88;0.80;;;18.40;99.90;;;;;;5033359;28;20087;-79
2023/07/27 09:08:13;;;;;;;1.92;0.95;;;18.40;99.90;;;;;;5034544;28;20045;-78
2023/07/27 09:10:41;;;;;;;2.33;0.90;;;18.40;99.90;;;;;;5036133;28;20041;-78
2023/07/27 09:13:07;;;;;;;2.38;0.90;;;18.40;99.90;;;;;;5034992;28;20034;-77
2023/07/27 09:15:34;;;;;;;2.33;0.80;;;18.40;99.90;;;;;;5018226;28;20038;-78
2023/07/27 09:18:01;;;;;;;2.13;1.00;;;18.40;99.90;;;;;;5034493;28;20021;-79
2023/07/27 09:20:31;;;;;;;2.28;0.80;;;18.40;99.90;;;;;;5018195;28;20033;-78
2023/07/27 09:22:57;;;;;;;2.30;1.17;;;18.40;99.90;;;;;;5035870;28;20042;-77
2023/07/27 09:25:23;;;;;;;3.90;1.20;;;18.30;99.90;;;;;;5034504;28;20069;-75
2023/07/27 09:27:54;;;;;;;2.85;1.13;;;18.30;99.90;;;;;;5034229;28;20080;-75
2023/07/27 09:30:25;;;;;;;3.63;1.23;;;18.20;99.90;;;;;;5017923;28;20076;-77
2023/07/27 09:32:52;;;;;;;2.33;1.30;;;18.20;99.90;;;;;;5037997;28;20029;-77
2023/07/27 09:35:19;;;;;;;3.20;1.30;;;18.20;99.90;;;;;;5048745;28;20017;-76
2023/07/27 09:37:55;;;;;;;6.93;1.40;;;18.20;99.90;;;;;;5039654;28;20032;-78
2023/07/27 09:40:24;;;;;;;4.45;1.20;;;18.20;99.90;;;;;;5035278;28;20026;-77
2023/07/27 09:42:49;;;;;;;3.20;1.55;;;18.20;99.90;;;;;;5017458;28;20379;-78
2023/07/27 09:45:15;;;;;;;2.92;1.35;;;18.20;99.90;;;;;;5035160;28;20029;-78
2023/07/27 09:47:42;;;;;;;3.03;1.55;;;18.20;99.90;;;;;;5035223;28;20030;-76
2023/07/27 09:50:09;;;;;;;2.60;1.42;;;18.20;99.90;;;;;;5043595;28;20040;-77
2023/07/27 09:52:36;;;;;;;3.67;2.05;;;18.30;99.90;;;;;;5017146;28;20025;-77
2023/07/27 09:55:03;;;;;;;3.08;1.63;;;18.30;99.90;;;;;;5037122;28;20061;-78
2023/07/27 09:57:30;;;;;;;3.13;1.83;;;18.40;99.90;;;;;;5020103;28;20040;-79
2023/07/27 09:59:56;;;;;;;4.32;2.35;;;18.40;99.90;;;;;;5033817;28;20028;-78
2023/07/27 10:02:22;;;;;;;3.08;2.13;;;18.40;99.90;;;;;;5041886;28;20029;-78
2023/07/27 10:04:51;;;;;;;4.45;2.33;;;18.50;99.90;;;;;;5053558;28;20025;-78
2023/07/27 10:07:21;;;;;;;5.55;2.70;;;18.50;99.90;;;;;;5053558;28;20044;-77
2023/07/27 10:09:47;;;;;;;3.70;2.30;;;18.60;99.90;;;;;;5053780;28;20033;-78
2023/07/27 10:12:29;;;;;;;6.75;2.38;;;18.60;99.90;;;;;;5053265;28;20071;-78
2023/07/27 10:15:31;;;;;;;3.00;1.83;;;18.70;99.90;;;;;;5037047;28;20087;-78
2023/07/27 10:17:58;;;;;;;4.63;2.42;;;18.70;99.90;;;;;;4998863;28;20386;-78
2023/07/27 10:20:31;;;;;;;2.88;1.80;;;18.80;99.90;;;;;;5062113;28;20033;-78
2023/07/27 10:23:26;;;;;;;4.88;2.38;;;18.80;99.90;;;;;;5039673;28;20039;-78
2023/07/27 10:25:55;;;;;;;4.35;2.53;;;18.80;99.90;;;;;;5050798;28;20053;-79
2023/07/27 10:28:41;;;;;;;3.50;2.55;;;18.90;99.90;;;;;;5034419;28;20033;-79
2023/07/27 10:31:26;;;;;;;3.67;2.38;;;18.90;99.90;;;;;;5033225;28;20021;-77
2023/07/27 10:34:02;;;;;;;4.55;2.47;;;18.90;99.90;;;;;;5049515;28;20397;-86
2023/07/27 10:36:51;;;;;;;3.00;2.15;;;19.00;99.90;;;;;;5034331;28;20026;-86
2023/07/27 10:39:34;;;;;;;2.90;2.22;;;19.00;99.90;;;;;;5044852;28;20070;-84
2023/07/27 10:42:07;;;;;;;3.42;2.35;;;19.10;99.90;;;;;;5034592;28;20030;-77
2023/07/27 10:44:42;;;;;;;4.18;2.47;;;19.10;99.90;;;;;;5032909;28;20063;-77
2023/07/27 10:47:12;;;;;;;3.45;2.08;;;19.10;99.90;;;;;;5042541;28;20501;-77
2023/07/27 10:49:44;;;;;;;4.43;2.95;;;19.20;99.90;;;;;;5053159;28;20108;-79
2023/07/27 10:52:17;;;;;;;3.47;2.63;;;19.20;99.90;;;;;;5052412;28;20033;-77
2023/07/27 10:54:44;;;;;;;2.97;2.22;;;19.20;99.90;;;;;;5049817;28;20465;-77
2023/07/27 10:57:11;;;;;;;5.22;2.95;;;19.30;99.90;;;;;;5048034;28;20044;-76
2023/07/27 10:59:46;;;;;;;4.78;2.70;;;19.30;99.90;;;;;;5024830;28;20107;-77
2023/07/27 11:02:18;;;;;;;5.57;2.63;;;19.30;99.90;;;;;;5033732;28;20044;-78
2023/07/27 11:04:44;;;;;;;4.82;3.10;;;19.30;99.90;;;;;;5032920;28;20482;-79
2023/07/27 11:07:11;;;;;;;4.60;3.17;;;19.30;99.90;;;;;;5016094;28;20057;-77
2023/07/27 11:09:37;;;;;;;4.47;3.08;;;19.40;99.90;;;;;;5015991;28;20018;-77
2023/07/27 11:12:04;;;;;;;5.18;2.80;;;19.40;99.90;;;;;;5032509;28;20033;-76
2023/07/27 11:14:30;;;;;;;4.22;2.70;;;19.50;99.90;;;;;;5032012;28;20079;-77
2023/07/27 11:16:57;;;;;;;5.00;2.67;;;19.50;99.90;;;;;;5052065;28;20020;-80
2023/07/27 11:19:25;;;;;;;5.10;2.75;;;19.50;99.90;;;;;;5035694;28;20037;-76
2023/07/27 11:21:51;;;;;;;3.90;2.08;;;19.50;99.90;;;;;;5052066;28;20131;-78
2023/07/27 11:24:18;;;;;;;3.75;2.20;;;19.50;99.90;;;;;;5035527;28;20052;-77
2023/07/27 11:26:44;;;;;;;3.75;1.98;;;19.60;99.90;;;;;;5052002;28;20045;-77
2023/07/27 11:29:10;;;;;;;5.32;2.17;;;19.50;99.90;;;;;;5051909;28;20033;-76
2023/07/27 11:31:36;;;;;;;2.90;2.05;;;19.60;99.90;;;;;;5051949;28;20127;-78
2023/07/27 11:34:03;;;;;;;2.78;2.22;;;19.60;99.90;;;;;;5051998;28;20086;-76
2023/07/27 11:36:31;;;;;;;4.50;2.20;;;19.60;99.90;;;;;;5051975;28;20022;-78
2023/07/27 11:38:58;;;;;;;3.45;1.90;;;19.70;99.90;;;;;;5053384;28;20044;-79
2023/07/27 11:41:30;;;;;;;4.15;2.10;;;19.70;99.90;;;;;;5035389;28;20021;-77
2023/07/27 11:43:57;;;;;;;2.95;1.85;;;19.70;99.90;;;;;;5053187;28;20098;-78
2023/07/27 11:46:26;;;;;;;4.13;2.25;;;19.70;99.90;;;;;;5051907;28;20573;-78
2023/07/27 11:48:53;;;;;;;3.33;2.45;;;19.70;99.90;;;;;;5051784;28;20044;-77
2023/07/27 11:51:19;;;;;;;3.55;1.85;;;19.70;99.90;;;;;;5035301;28;20397;-77
2023/07/27 11:53:45;;;;;;;3.92;2.45;;;19.70;99.90;;;;;;5051809;28;20032;-78
2023/07/27 11:56:12;;;;;;;3.50;2.22;;;19.70;99.90;;;;;;5018874;28;20032;-78
2023/07/27 11:58:40;;;;;;;3.28;2.08;;;19.70;99.90;;;;;;5052053;28;20083;-78
2023/07/27 12:01:06;;;;;;;3.28;1.90;;;19.80;99.90;;;;;;5035541;28;20021;-77
2023/07/27 12:03:32;;;;;;;2.40;1.85;;;19.80;99.90;;;;;;5035374;28;20021;-78
2023/07/27 12:06:03;;;;;;;2.78;1.90;;;19.80;99.90;;;;;;5034503;28;20025;-78
2023/07/27 12:08:30;;;;;;;3.40;1.50;;;19.90;99.90;;;;;;5035524;28;20048;-78
2023/07/27 12:11:00;;;;;;;3.90;1.95;;;20.00;99.90;;;;;;5051948;28;20043;-78
2023/07/27 12:13:27;;;;;;;2.95;2.08;;;20.00;99.90;;;;;;5050912;28;20504;-76
2023/07/27 12:16:07;;;;;;;3.20;1.60;;;20.00;99.90;;;;;;5051853;28;20032;-78
2023/07/27 12:18:32;;;;;;;3.67;2.10;;;20.00;99.90;;;;;;5050696;28;20025;-77
2023/07/27 12:20:59;;;;;;;4.70;2.50;;;20.00;99.90;;;;;;5052616;28;20029;-79
2023/07/27 12:23:25;;;;;;;3.67;2.65;;;20.00;99.90;;;;;;5018756;28;20131;-78
2023/07/27 12:25:53;;;;;;;2.97;2.15;;;20.00;99.90;;;;;;5051513;28;20438;-75
2023/07/27 12:28:19;;;;;;;4.32;2.60;;;20.00;99.90;;;;;;5035149;28;20025;-77
2023/07/27 12:30:45;;;;;;;3.40;2.60;;;20.10;99.90;;;;;;5051791;28;20036;-78
2023/07/27 12:33:11;;;;;;;2.88;1.90;;;20.10;99.90;;;;;;5051314;28;20026;-77
2023/07/27 12:35:38;;;;;;;3.10;1.95;;;20.20;99.90;;;;;;5052652;28;20044;-79
2023/07/27 12:38:04;;;;;;;2.80;1.58;;;20.20;99.90;;;;;;5019107;28;20444;-79
2023/07/27 12:40:29;;;;;;;3.33;1.92;;;20.30;99.90;;;;;;5035791;28;20104;-76
2023/07/27 12:42:55;;;;;;;2.70;1.83;;;20.30;99.90;;;;;;5056327;28;20404;-78
2023/07/27 12:45:22;;;;;;;5.65;1.90;;;20.40;99.90;;;;;;5056252;28;20116;-77